createdAt,value
2019-04-11T00:01:14.215Z,17.85
2019-04-11T00:03:46.093Z,16.85
2019-04-11T00:06:19.347Z,16.87
2019-04-11T00:08:52.323Z,16.77
2019-04-11T00:11:24.321Z,16.77
2019-04-11T00:13:56.093Z,15.78
2019-04-11T00:16:28.956Z,15.83
2019-04-11T00:19:00.621Z,15.43
2019-04-11T00:21:32.994Z,16.12
2019-04-11T00:24:05.008Z,15.18
2019-04-11T00:26:38.194Z,15.70
2019-04-11T00:29:10.337Z,15.33
2019-04-11T00:31:43.086Z,14.83
2019-04-11T00:34:15.119Z,14.07
2019-04-11T00:36:46.832Z,16.20
2019-04-11T00:39:19.493Z,18.98
2019-04-11T00:41:52.296Z,21.95
2019-04-11T00:44:25.093Z,26.35
2019-04-11T00:46:56.959Z,28.98
2019-04-11T00:49:28.810Z,31.37
2019-04-11T00:52:00.882Z,31.73
2019-04-11T00:54:33.218Z,34.98
2019-04-11T00:57:06.473Z,33.90
2019-04-11T00:59:38.529Z,35.68
2019-04-11T01:02:11.409Z,34.85
2019-04-11T01:04:43.573Z,36.83
2019-04-11T01:07:16.474Z,36.42
2019-04-11T01:09:48.625Z,36.03
2019-04-11T01:12:21.006Z,36.80
2019-04-11T01:14:53.174Z,36.90
2019-04-11T01:17:25.396Z,37.33
2019-04-11T01:19:57.423Z,36.23
2019-04-11T01:22:29.872Z,37.88
2019-04-11T01:25:01.772Z,36.63
2019-04-11T01:27:34.180Z,37.63
2019-04-11T01:30:10.072Z,36.25
2019-04-11T01:32:42.373Z,37.40
2019-04-11T01:35:15.157Z,35.75
2019-04-11T01:37:48.094Z,36.17
2019-04-11T01:40:19.891Z,36.75
2019-04-11T01:42:52.055Z,36.30
2019-04-11T01:45:25.374Z,36.50
2019-04-11T01:47:59.459Z,36.40
2019-04-11T01:50:32.911Z,39.38
2019-04-11T01:53:05.043Z,36.90
2019-04-11T01:55:37.102Z,37.03
2019-04-11T01:58:09.168Z,37.58
2019-04-11T02:00:49.041Z,37.08
2019-04-11T02:03:25.586Z,38.38
2019-04-11T02:05:57.560Z,41.05
2019-04-11T02:08:29.518Z,40.25
2019-04-11T02:11:01.449Z,37.95
2019-04-11T02:13:34.246Z,37.50
2019-04-11T02:16:06.937Z,36.95
2019-04-11T02:18:39.390Z,36.85
2019-04-11T02:21:11.544Z,35.25
2019-04-11T02:23:57.501Z,34.92
2019-04-11T02:26:31.471Z,35.63
2019-04-11T02:29:03.523Z,33.20
2019-04-11T02:31:36.789Z,31.20
2019-04-11T02:34:11.219Z,31.23
2019-04-11T02:36:42.997Z,29.98
2019-04-11T02:39:19.266Z,28.92
2019-04-11T02:41:50.620Z,27.60
2019-04-11T02:44:46.043Z,26.62
2019-04-11T02:47:01.757Z,27.10
2019-04-11T02:49:30.977Z,26.95
2019-04-11T02:52:02.929Z,25.43
2019-04-11T02:54:36.666Z,22.50
2019-04-11T02:57:09.964Z,22.07
2019-04-11T02:59:44.439Z,22.73
2019-04-11T03:02:19.022Z,22.50
2019-04-11T03:04:50.926Z,20.80
2019-04-11T03:07:22.789Z,21.20
2019-04-11T03:09:56.750Z,20.92
2019-04-11T03:12:29.717Z,19.92
2019-04-11T03:15:14.388Z,19.85
2019-04-11T03:17:42.205Z,20.30
2019-04-11T03:22:44.763Z,19.57
2019-04-11T03:25:17.755Z,21.27
2019-04-11T03:27:51.808Z,21.42
2019-04-11T03:30:40.653Z,20.55
2019-04-11T03:38:40.085Z,20.30
2019-04-11T03:41:08.774Z,20.65
2019-04-11T03:43:34.515Z,19.70
2019-04-11T03:46:18.009Z,20.10
2019-04-11T03:48:43.748Z,18.87
2019-04-11T03:51:04.798Z,20.20
2019-04-11T03:53:37.359Z,20.05
2019-04-11T03:56:09.758Z,20.72
2019-04-11T03:58:43.595Z,20.43
2019-04-11T04:01:18.183Z,20.20
2019-04-11T04:03:53.943Z,20.55
2019-04-11T04:06:28.575Z,19.32
2019-04-11T04:09:02.744Z,20.65
2019-04-11T04:11:36.274Z,21.87
2019-04-11T04:14:10.452Z,20.27
2019-04-11T04:16:48.266Z,20.80
2019-04-11T04:19:20.557Z,21.25
2019-04-11T04:22:00.824Z,21.00
2019-04-11T04:24:39.072Z,20.72
2019-04-11T04:27:10.102Z,21.27
2019-04-11T04:29:46.772Z,20.82
2019-04-11T04:32:18.527Z,21.00
2019-04-11T04:34:50.814Z,20.85
2019-04-11T04:41:30.193Z,22.45
2019-04-11T04:43:54.819Z,20.65
2019-04-11T04:46:45.330Z,22.00
2019-04-11T04:49:02.324Z,21.73
2019-04-11T04:51:35.163Z,21.23
2019-04-11T04:54:08.122Z,20.95
2019-04-11T04:56:41.953Z,21.70
2019-04-11T04:59:14.653Z,21.97
2019-04-11T05:01:48.320Z,22.48
2019-04-11T05:04:21.040Z,22.70
2019-04-11T05:06:54.959Z,23.22
2019-04-11T05:09:26.874Z,22.27
2019-04-11T05:11:58.957Z,21.75
2019-04-11T05:14:31.673Z,21.05
2019-04-11T05:17:03.498Z,19.87
2019-04-11T05:19:35.364Z,19.75
2019-04-11T05:22:08.491Z,18.77
2019-04-11T05:24:41.049Z,19.10
2019-04-11T05:27:12.920Z,18.50
2019-04-11T05:29:45.936Z,17.17
2019-04-11T05:32:17.833Z,18.37
2019-04-11T05:34:49.704Z,17.60
2019-04-11T05:37:22.735Z,17.90
2019-04-11T05:39:54.576Z,17.65
2019-04-11T05:42:27.400Z,17.20
2019-04-11T05:44:59.310Z,18.27
2019-04-11T05:47:31.709Z,17.17
2019-04-11T05:50:12.912Z,18.15
2019-04-11T05:52:42.172Z,17.87
2019-04-11T05:55:15.515Z,17.48
2019-04-11T05:57:48.222Z,17.12
2019-04-11T06:00:21.739Z,16.77
2019-04-11T06:02:55.280Z,16.80
2019-04-11T06:05:47.400Z,16.90
2019-04-11T06:08:25.056Z,16.93
2019-04-11T06:13:30.542Z,17.85
2019-04-11T06:16:04.626Z,17.90
2019-04-11T06:18:41.884Z,16.90
2019-04-11T06:21:13.197Z,17.30
2019-04-11T06:23:47.704Z,18.82
2019-04-11T06:26:38.676Z,22.40
2019-04-11T06:29:21.293Z,23.50
2019-04-11T06:31:49.720Z,26.17
2019-04-11T06:34:24.060Z,25.95
2019-04-11T06:36:59.343Z,26.87
2019-04-11T06:39:35.962Z,25.77
2019-04-11T06:42:27.578Z,24.30
2019-04-11T06:45:02.132Z,22.62
2019-04-11T06:47:37.320Z,22.67
2019-04-11T06:50:20.476Z,24.18
2019-04-11T06:52:53.054Z,23.40
2019-04-11T06:55:42.660Z,20.82
2019-04-11T06:58:16.054Z,22.67
2019-04-11T07:00:50.088Z,21.00
2019-04-11T07:05:57.282Z,19.80
2019-04-11T07:08:30.645Z,20.97
2019-04-11T07:11:20.529Z,21.00
2019-04-11T07:14:01.904Z,20.95
2019-04-11T07:16:36.171Z,21.20
2019-04-11T07:19:09.646Z,21.45
2019-04-11T07:21:42.025Z,21.97
2019-04-11T07:24:30.970Z,20.72
2019-04-11T07:27:04.651Z,18.45
2019-04-11T07:29:46.974Z,14.70
2019-04-11T07:32:20.193Z,12.25
2019-04-11T07:35:00.011Z,9.67
2019-04-11T07:37:36.748Z,10.10
2019-04-11T07:40:15.306Z,10.23
2019-04-11T07:42:59.433Z,10.45
2019-04-11T07:45:49.134Z,9.95
2019-04-11T07:48:22.726Z,9.48
2019-04-11T07:50:55.406Z,9.30
2019-04-11T07:53:28.542Z,9.75
2019-04-11T07:56:02.051Z,9.00
2019-04-11T10:19:38.450Z,8.00
2019-04-11T10:22:13.011Z,8.50
2019-04-11T10:24:46.474Z,8.13
2019-04-11T10:27:36.364Z,8.18
2019-04-11T10:30:27.479Z,8.15
2019-04-11T10:33:07.223Z,8.40
2019-04-11T10:35:40.819Z,7.10
2019-04-11T10:38:16.224Z,6.50
2019-04-11T10:40:52.462Z,7.20
2019-04-11T10:43:24.646Z,6.95
2019-04-11T10:45:58.807Z,6.97
2019-04-11T10:48:37.769Z,7.08
2019-04-11T10:51:07.037Z,7.42
2019-04-11T10:53:39.645Z,7.67
2019-04-11T10:56:16.018Z,6.72
2019-04-11T10:58:49.708Z,6.85
2019-04-11T11:01:40.186Z,6.83
2019-04-11T11:04:13.803Z,7.75
2019-04-11T11:06:48.383Z,7.37
2019-04-11T11:09:39.940Z,6.53
2019-04-11T11:12:31.085Z,6.60
2019-04-11T11:15:04.661Z,5.42
2019-04-11T11:18:05.569Z,6.05
2019-04-11T11:20:38.591Z,6.67
2019-04-11T11:23:24.766Z,6.47
2019-04-11T11:26:07.400Z,6.00
2019-04-11T11:28:46.695Z,5.97
2019-04-11T11:31:24.345Z,6.00
2019-04-11T11:33:58.850Z,6.40
2019-04-11T11:36:48.475Z,6.35
2019-04-11T11:39:22.700Z,4.87
2019-04-11T11:42:12.564Z,5.05
2019-04-11T11:44:53.141Z,5.30
2019-04-11T11:47:43.201Z,4.90
2019-04-11T11:50:26.773Z,5.33
2019-04-11T11:53:12.687Z,5.20
2019-04-11T11:55:45.305Z,4.90
2019-04-11T11:58:37.862Z,4.83
2019-04-11T12:01:09.946Z,4.60
2019-04-11T12:03:49.186Z,4.72
2019-04-11T12:06:23.858Z,4.72
2019-04-11T12:09:00.488Z,7.10
2019-04-11T12:11:35.727Z,5.65
2019-04-11T12:14:09.708Z,4.58
2019-04-11T12:19:22.303Z,4.20
2019-04-11T12:21:56.000Z,6.20
2019-04-11T12:24:29.247Z,5.10
2019-04-11T12:27:04.404Z,4.45
2019-04-11T12:29:51.643Z,5.40
2019-04-11T12:32:28.439Z,4.50
2019-04-11T12:35:06.096Z,5.17
2019-04-11T12:37:39.487Z,5.08
2019-04-11T12:40:20.685Z,4.60
2019-04-11T12:42:52.856Z,4.70
2019-04-11T12:45:35.358Z,5.08
2019-04-11T12:48:07.417Z,4.70
2019-04-11T12:50:59.368Z,4.50
2019-04-11T12:53:31.421Z,5.17
2019-04-11T12:56:05.034Z,4.97
2019-04-11T12:59:24.307Z,4.92
2019-04-11T13:02:00.476Z,4.65
2019-04-11T13:04:32.438Z,4.87
2019-04-11T13:07:09.110Z,4.62
2019-04-11T13:09:43.854Z,4.70
2019-04-11T13:12:39.149Z,4.53
2019-04-11T13:15:24.121Z,4.95
2019-04-11T13:18:09.836Z,4.12
2019-04-11T13:20:49.549Z,5.17
2019-04-11T13:23:40.670Z,5.33
2019-04-11T13:26:30.529Z,4.87
2019-04-11T13:29:04.265Z,4.80
2019-04-11T13:31:55.975Z,4.87
2019-04-11T13:34:29.564Z,4.53
2019-04-11T13:37:19.467Z,4.58
2019-04-11T13:40:09.555Z,4.72
2019-04-11T13:43:02.520Z,6.30
2019-04-11T13:45:45.945Z,6.50
2019-04-11T13:48:35.710Z,5.95
2019-04-11T13:51:21.107Z,6.75
2019-04-11T13:54:11.093Z,6.05
2019-04-11T13:57:02.188Z,5.97
2019-04-11T13:59:35.790Z,6.37
2019-04-11T14:02:11.970Z,6.08
2019-04-11T14:04:57.864Z,4.65
2019-04-11T14:07:34.219Z,5.65
2019-04-11T14:10:08.445Z,5.80
2019-04-11T14:12:40.825Z,5.42
2019-04-11T14:15:17.388Z,5.78
2019-04-11T14:18:07.057Z,5.50
2019-04-11T14:20:59.104Z,5.42
2019-04-11T14:23:50.612Z,5.72
2019-04-11T14:26:24.316Z,5.30
2019-04-11T14:28:56.810Z,5.50
2019-04-11T14:31:39.124Z,5.85
2019-04-11T14:34:29.356Z,5.83
2019-04-11T14:37:21.144Z,6.30
2019-04-11T14:39:54.850Z,6.40
2019-04-11T14:42:46.233Z,7.60
2019-04-11T14:45:36.614Z,8.18
2019-04-11T14:48:27.066Z,8.15
2019-04-11T14:51:03.731Z,9.05
2019-04-11T14:53:53.635Z,9.33
2019-04-11T14:56:30.298Z,8.93
2019-04-11T14:59:23.977Z,9.83
2019-04-11T15:02:12.190Z,9.70
2019-04-11T15:04:48.984Z,10.43
2019-04-11T15:07:21.377Z,10.90
2019-04-11T15:10:10.953Z,10.63
2019-04-11T15:12:43.117Z,11.18
2019-04-11T15:15:25.026Z,11.65
2019-04-11T15:17:58.828Z,12.00
2019-04-11T15:20:54.183Z,12.82
2019-04-11T15:23:18.625Z,13.53
2019-04-11T15:26:08.811Z,14.87
2019-04-11T15:28:48.453Z,16.05
2019-04-11T15:31:39.159Z,15.53
2019-04-11T15:34:12.450Z,15.85
2019-04-11T15:36:52.341Z,15.48
2019-04-11T15:39:44.334Z,16.85
2019-04-11T15:42:15.977Z,16.67
2019-04-11T15:45:04.770Z,16.27
2019-04-11T15:47:38.378Z,17.45
2019-04-11T15:50:30.703Z,16.60
2019-04-11T15:53:06.607Z,14.78
2019-04-11T15:55:55.946Z,15.18
2019-04-11T15:58:29.534Z,16.20
2019-04-11T16:01:05.999Z,15.40
2019-04-11T16:03:37.967Z,15.75
2019-04-11T16:06:27.135Z,15.58
2019-04-11T16:08:59.731Z,15.78
2019-04-11T16:11:33.220Z,16.20
2019-04-11T16:14:06.834Z,15.90
2019-04-11T16:16:46.587Z,16.40
2019-04-11T16:19:26.442Z,16.05
2019-04-11T16:22:02.717Z,15.90
2019-04-11T16:24:35.572Z,16.17
2019-04-11T16:27:17.796Z,15.30
2019-04-11T16:29:54.260Z,16.20
2019-04-11T16:32:27.749Z,18.85
2019-04-11T16:35:08.429Z,18.67
2019-04-11T16:37:41.843Z,17.75
2019-04-11T16:40:18.199Z,18.03
2019-04-11T16:42:53.576Z,18.70
2019-04-11T16:45:42.688Z,18.62
2019-04-11T16:48:14.680Z,18.55
2019-04-11T16:50:46.638Z,19.20
2019-04-11T16:53:21.857Z,17.57
2019-04-11T16:55:55.521Z,20.32
2019-04-11T16:58:27.545Z,19.57
2019-04-11T17:00:59.443Z,19.32
2019-04-11T17:03:31.472Z,32.23
2019-04-11T17:06:07.782Z,28.80
2019-04-11T17:08:51.693Z,40.00
2019-04-11T17:11:26.724Z,34.07
2019-04-11T17:13:57.905Z,31.70
2019-04-11T17:16:30.838Z,34.25
2019-04-11T17:19:05.473Z,31.75
2019-04-11T17:21:43.000Z,34.78
2019-04-11T17:24:10.751Z,36.17
2019-04-11T17:26:42.923Z,37.13
2019-04-11T17:29:14.992Z,35.80
2019-04-11T17:31:47.166Z,34.53
2019-04-11T17:34:20.551Z,30.75
2019-04-11T17:36:52.504Z,26.33
2019-04-11T17:39:24.675Z,27.17
2019-04-11T17:41:56.657Z,28.95
2019-04-11T17:44:28.708Z,29.52
2019-04-11T17:47:00.976Z,30.72
2019-04-11T17:49:33.066Z,47.27
2019-04-11T17:52:07.027Z,49.00
2019-04-11T17:54:43.345Z,42.62
2019-04-11T17:57:15.213Z,44.00
2019-04-11T17:59:50.642Z,44.42
2019-04-11T18:02:22.821Z,43.28
2019-04-11T18:04:54.983Z,43.55
2019-04-11T18:07:26.856Z,43.45
2019-04-11T18:09:58.710Z,43.28
2019-04-11T18:12:30.676Z,72.20
2019-04-11T18:15:03.012Z,56.90
2019-04-11T18:17:36.223Z,52.83
2019-04-11T18:20:10.154Z,52.65
2019-04-11T18:22:45.793Z,51.68
2019-04-11T18:25:15.725Z,51.63
2019-04-11T18:27:47.467Z,49.98
2019-04-11T18:30:23.261Z,50.78
2019-04-11T18:32:54.473Z,46.48
2019-04-11T18:35:26.506Z,43.15
2019-04-11T18:38:01.755Z,43.87
2019-04-11T18:40:33.235Z,42.80
2019-04-11T18:43:05.298Z,44.35
2019-04-11T18:45:37.363Z,46.15
2019-04-11T18:48:09.228Z,42.83
2019-04-11T18:50:42.067Z,39.42
2019-04-11T18:53:21.951Z,37.08
2019-04-11T18:55:53.640Z,38.00
2019-04-11T18:58:25.597Z,38.58
2019-04-11T19:00:57.866Z,43.23
2019-04-11T19:03:35.986Z,42.13
2019-04-11T19:06:03.404Z,40.78
2019-04-11T19:08:36.319Z,38.73
2019-04-11T19:11:08.382Z,38.88
2019-04-11T19:13:40.218Z,37.65
2019-04-11T19:16:13.806Z,39.48
2019-04-11T19:18:47.660Z,38.67
2019-04-11T19:21:21.091Z,37.48
2019-04-11T19:23:53.350Z,38.35
2019-04-11T19:26:25.368Z,37.58
2019-04-11T19:28:57.121Z,38.17
2019-04-11T19:31:29.312Z,38.10
2019-04-11T19:34:04.396Z,39.35
2019-04-11T19:36:35.129Z,37.48
2019-04-11T19:39:13.549Z,34.95
2019-04-11T19:41:42.903Z,37.23
2019-04-11T19:44:16.859Z,39.27
2019-04-11T19:46:50.981Z,38.70
2019-04-11T19:49:24.210Z,38.42
2019-04-11T19:51:58.653Z,38.67
2019-04-11T19:54:32.805Z,37.90
2019-04-11T19:57:07.711Z,38.05
2019-04-11T19:59:39.454Z,36.25
2019-04-11T20:02:11.723Z,31.68
2019-04-11T20:04:43.484Z,29.37
2019-04-11T20:07:15.399Z,29.77
2019-04-11T20:09:47.305Z,31.50
2019-04-11T20:12:20.301Z,31.90
2019-04-11T20:14:52.460Z,31.10
2019-04-11T20:17:24.427Z,33.23
2019-04-11T20:20:01.579Z,32.17
2019-04-11T20:22:30.192Z,33.08
2019-04-11T20:25:02.834Z,32.48
2019-04-11T20:27:35.158Z,32.75
2019-04-11T20:30:07.847Z,30.88
2019-04-11T20:32:40.041Z,32.73
2019-04-11T20:35:11.925Z,34.18
2019-04-11T20:37:44.720Z,35.48
2019-04-11T20:40:18.150Z,38.02
2019-04-11T20:42:54.051Z,39.80
2019-04-11T20:45:28.483Z,42.95
2019-04-11T20:48:00.905Z,43.00
2019-04-11T20:50:32.737Z,46.23
2019-04-11T20:53:12.626Z,47.33
2019-04-11T20:55:39.266Z,47.45
2019-04-11T20:58:11.714Z,50.30
2019-04-11T21:00:50.091Z,50.58
2019-04-11T21:05:48.726Z,49.83
2019-04-11T21:08:20.392Z,49.65
2019-04-11T21:10:52.234Z,51.45
2019-04-11T21:13:24.120Z,50.10
2019-04-11T21:15:56.655Z,49.70
2019-04-11T21:18:28.536Z,48.17
2019-04-11T21:21:00.851Z,48.87
2019-04-11T21:23:36.714Z,49.50
2019-04-11T21:26:09.048Z,48.60
2019-04-11T21:28:40.991Z,46.50
2019-04-11T21:31:13.183Z,49.63
2019-04-11T21:33:45.147Z,49.85
2019-04-11T21:36:18.331Z,50.95
2019-04-11T21:38:50.509Z,50.57
2019-04-11T21:41:23.799Z,46.42
2019-04-11T21:43:55.443Z,47.38
2019-04-11T21:46:27.955Z,53.65
2019-04-11T21:48:59.819Z,53.75
2019-04-11T21:51:31.849Z,55.43
2019-04-11T21:54:03.811Z,57.83
2019-04-11T21:56:35.792Z,55.80
2019-04-11T21:59:07.969Z,61.18
2019-04-11T22:01:43.002Z,60.15
2019-04-11T22:04:14.861Z,59.90
2019-04-11T22:06:47.206Z,58.13
2019-04-11T22:09:19.188Z,57.43
2019-04-11T22:11:50.931Z,59.00
2019-04-11T22:14:23.442Z,58.78
2019-04-11T22:16:56.738Z,55.98
2019-04-11T22:19:29.239Z,58.92
2019-04-11T22:22:02.266Z,61.10
2019-04-11T22:24:34.382Z,59.03
2019-04-11T22:27:06.430Z,59.20
2019-04-11T22:29:39.111Z,59.65
2019-04-11T22:32:11.268Z,58.08
2019-04-11T22:34:44.582Z,57.03
2019-04-11T22:37:16.934Z,55.63
2019-04-11T22:39:48.992Z,54.40
2019-04-11T22:42:21.071Z,52.93
2019-04-11T22:44:52.815Z,52.90
2019-04-11T22:47:24.802Z,55.85
2019-04-11T22:49:56.864Z,56.30
2019-04-11T22:52:29.262Z,56.02
2019-04-11T22:55:01.211Z,55.00
2019-04-11T22:57:33.371Z,54.75
2019-04-11T23:00:08.589Z,53.08
2019-04-11T23:02:47.420Z,49.40
2019-04-11T23:05:19.797Z,46.37
2019-04-11T23:07:51.790Z,45.65
2019-04-11T23:10:23.827Z,40.33
2019-04-11T23:12:55.992Z,40.00
2019-04-11T23:15:27.766Z,38.13
2019-04-11T23:17:59.732Z,36.38
2019-04-11T23:20:31.694Z,34.33
2019-04-11T23:23:03.564Z,35.10
2019-04-11T23:25:35.418Z,33.35
2019-04-11T23:28:07.509Z,34.92
2019-04-11T23:30:39.749Z,34.20
2019-04-11T23:33:11.522Z,35.83
2019-04-11T23:35:43.463Z,35.43
2019-04-11T23:38:15.278Z,37.80
2019-04-11T23:40:48.897Z,37.00
2019-04-11T23:43:20.780Z,40.12
2019-04-11T23:45:53.180Z,38.02
2019-04-11T23:48:24.814Z,37.98
2019-04-11T23:50:58.337Z,39.33
2019-04-11T23:53:29.906Z,40.80
2019-04-11T23:56:01.733Z,37.73
2019-04-11T23:58:33.802Z,38.55
